createdAt,value
2022-10-11T00:01:09.484Z,8.02
2022-10-11T00:03:38.464Z,7.63
2022-10-11T00:06:18.109Z,7.88
2022-10-11T00:08:58.198Z,7.97
2022-10-11T00:11:38.789Z,7.75
2022-10-11T00:14:17.295Z,8.45
2022-10-11T00:16:56.012Z,8.27
2022-10-11T00:19:35.369Z,7.93
2022-10-11T00:22:15.516Z,8.20
2022-10-11T00:24:55.791Z,8.13
2022-10-11T00:27:35.587Z,8.43
2022-10-11T00:30:14.902Z,8.82
2022-10-11T00:32:54.783Z,8.25
2022-10-11T00:35:34.338Z,8.57
2022-10-11T00:38:12.638Z,8.20
2022-10-11T00:40:51.485Z,8.23
2022-10-11T00:43:32.402Z,8.27
2022-10-11T00:46:21.889Z,8.18
2022-10-11T00:49:13.575Z,8.75
2022-10-11T00:52:13.933Z,9.25
2022-10-11T00:54:53.432Z,8.57
2022-10-11T00:57:40.931Z,8.32
2022-10-11T01:00:18.792Z,9.00
2022-10-11T01:02:57.722Z,8.65
2022-10-11T01:05:39.946Z,9.65
2022-10-11T01:08:19.375Z,9.52
2022-10-11T01:10:59.462Z,10.15
2022-10-11T01:13:55.878Z,9.85
2022-10-11T01:16:36.587Z,9.52
2022-10-11T01:19:37.251Z,9.65
2022-10-11T01:22:53.577Z,9.80
2022-10-11T01:25:49.818Z,9.18
2022-10-11T01:28:28.723Z,10.18
2022-10-11T01:31:41.308Z,10.90
2022-10-11T01:34:48.082Z,10.60
2022-10-11T01:37:35.032Z,10.85
2022-10-11T01:40:30.237Z,10.77
2022-10-11T01:43:10.054Z,10.95
2022-10-11T01:45:53.734Z,11.63
2022-10-11T01:48:33.371Z,12.18
2022-10-11T01:51:12.820Z,11.77
2022-10-11T01:53:59.436Z,13.23
2022-10-11T01:57:03.820Z,13.68
2022-10-11T02:00:05.389Z,13.25
2022-10-11T02:02:51.161Z,14.40
2022-10-11T02:06:08.625Z,13.35
2022-10-11T02:09:12.275Z,14.90
2022-10-11T02:11:56.256Z,14.75
2022-10-11T02:14:40.521Z,14.43
2022-10-11T02:17:23.380Z,15.20
2022-10-11T02:20:07.586Z,14.00
2022-10-11T02:22:53.481Z,14.20
2022-10-11T02:25:36.588Z,14.93
2022-10-11T02:28:21.765Z,13.77
2022-10-11T02:31:02.783Z,13.65
2022-10-11T02:34:16.595Z,12.25
2022-10-11T02:37:20.351Z,13.65
2022-10-11T02:40:36.190Z,13.40
2022-10-11T02:43:33.062Z,14.07
2022-10-11T02:46:16.612Z,14.73
2022-10-11T02:48:59.874Z,14.25
2022-10-11T02:51:39.893Z,14.32
2022-10-11T02:54:21.268Z,14.25
2022-10-11T02:57:00.085Z,13.63
2022-10-11T02:59:51.798Z,12.90
2022-10-11T03:02:30.070Z,13.98
2022-10-11T03:05:08.651Z,14.10
2022-10-11T03:07:47.891Z,13.82
2022-10-11T03:10:26.228Z,13.70
2022-10-11T03:13:06.610Z,14.98
2022-10-11T03:16:01.920Z,13.40
2022-10-11T03:18:42.184Z,15.00
2022-10-11T03:21:21.433Z,16.00
2022-10-11T03:23:59.796Z,14.70
2022-10-11T03:26:39.686Z,15.82
2022-10-11T03:29:19.348Z,14.25
2022-10-11T03:31:57.905Z,13.90
2022-10-11T03:34:37.401Z,13.15
2022-10-11T03:37:15.643Z,13.65
2022-10-11T03:39:53.836Z,13.63
2022-10-11T03:42:30.928Z,13.10
2022-10-11T03:45:10.987Z,13.48
2022-10-11T03:47:50.196Z,12.25
2022-10-11T03:50:28.678Z,13.10
2022-10-11T03:53:08.374Z,12.55
2022-10-11T03:55:54.629Z,12.40
2022-10-11T03:58:34.728Z,11.73
2022-10-11T04:01:14.130Z,12.60
2022-10-11T04:03:57.161Z,12.23
2022-10-11T04:06:37.124Z,12.00
2022-10-11T04:09:15.521Z,11.68
2022-10-11T04:11:55.847Z,11.27
2022-10-11T04:14:34.928Z,11.40
2022-10-11T04:17:14.824Z,10.45
2022-10-11T04:19:54.741Z,10.73
2022-10-11T04:22:34.661Z,12.48
2022-10-11T04:25:13.046Z,9.15
2022-10-11T04:27:53.811Z,11.90
2022-10-11T04:30:31.373Z,8.30
2022-10-11T04:33:11.614Z,8.52
2022-10-11T04:35:53.668Z,11.55
2022-10-11T04:38:45.202Z,8.57
2022-10-11T04:41:24.221Z,8.52
2022-10-11T04:44:03.779Z,6.53
2022-10-11T04:46:43.412Z,2.55
2022-10-11T04:49:23.993Z,3.25
2022-10-11T04:52:02.857Z,1.58
2022-10-11T04:54:42.609Z,1.50
2022-10-11T04:57:21.014Z,1.25
2022-10-11T05:00:00.823Z,1.20
2022-10-11T05:02:42.829Z,1.17
2022-10-11T05:05:20.838Z,1.42
2022-10-11T05:07:59.843Z,1.23
2022-10-11T05:10:38.572Z,0.90
2022-10-11T05:13:20.121Z,1.30
2022-10-11T05:15:58.905Z,1.30
2022-10-11T05:18:38.569Z,1.10
2022-10-11T05:21:20.923Z,1.13
2022-10-11T05:24:13.154Z,1.35
2022-10-11T05:26:52.764Z,1.20
2022-10-11T05:29:30.894Z,1.38
2022-10-11T05:32:10.504Z,1.13
2022-10-11T05:34:50.293Z,1.48
2022-10-11T05:37:30.210Z,1.50
2022-10-11T05:40:11.145Z,1.70
2022-10-11T05:42:50.578Z,1.73
2022-10-11T05:45:29.264Z,1.80
2022-10-11T05:48:06.791Z,1.85
2022-10-11T05:50:46.221Z,2.00
2022-10-11T05:53:26.175Z,1.65
2022-10-11T05:56:17.170Z,2.10
2022-10-11T05:59:02.058Z,2.00
2022-10-11T06:01:41.824Z,1.65
2022-10-11T06:04:19.821Z,1.60
2022-10-11T06:06:59.586Z,2.15
2022-10-11T06:15:42.115Z,2.03
2022-10-11T06:32:39.114Z,1.73
2022-10-11T06:35:34.517Z,1.88
2022-10-11T06:38:28.144Z,2.10
2022-10-11T06:41:23.515Z,1.70
2022-10-11T06:44:22.024Z,2.10
2022-10-11T06:47:00.080Z,1.77
2022-10-11T06:50:01.997Z,2.17
2022-10-11T06:53:00.603Z,1.80
2022-10-11T06:56:12.992Z,2.60
2022-10-11T06:59:06.482Z,1.85
2022-10-11T07:02:05.682Z,1.88
2022-10-11T07:04:58.128Z,1.67
2022-10-11T07:07:54.190Z,2.50
2022-10-11T07:10:50.022Z,2.00
2022-10-11T07:14:05.866Z,2.10
2022-10-11T07:17:03.275Z,2.17
2022-10-11T07:20:03.595Z,3.05
2022-10-11T07:23:06.039Z,1.92
2022-10-11T07:25:44.972Z,2.05
2022-10-11T07:28:39.245Z,2.35
2022-10-11T07:31:37.057Z,2.10
2022-10-11T07:34:31.477Z,1.63
2022-10-11T07:37:40.174Z,2.15
2022-10-11T07:40:43.511Z,2.97
2022-10-11T07:43:36.303Z,1.80
2022-10-11T07:47:11.200Z,2.92
2022-10-11T07:50:16.183Z,2.03
2022-10-11T07:53:43.280Z,2.90
2022-10-11T07:56:37.072Z,2.28
2022-10-11T07:59:29.978Z,2.00
2022-10-11T08:02:22.686Z,2.22
2022-10-11T08:05:34.432Z,2.20
2022-10-11T08:08:37.755Z,1.75
2022-10-11T08:11:38.698Z,2.42
2022-10-11T08:14:37.455Z,2.25
2022-10-11T08:17:34.806Z,2.17
2022-10-11T08:20:33.273Z,1.83
2022-10-11T08:23:48.342Z,2.60
2022-10-11T08:26:42.098Z,2.38
2022-10-11T08:29:34.788Z,1.98
2022-10-11T08:32:45.362Z,2.30
2022-10-11T08:35:50.772Z,2.40
2022-10-11T08:38:44.538Z,2.20
2022-10-11T08:42:03.051Z,2.72
2022-10-11T08:45:20.979Z,2.05
2022-10-11T08:48:16.230Z,2.60
2022-10-11T08:51:30.787Z,1.88
2022-10-11T08:54:38.155Z,2.08
2022-10-11T08:57:37.721Z,1.90
2022-10-11T09:00:35.831Z,2.88
2022-10-11T09:03:43.003Z,2.65
2022-10-11T09:06:48.816Z,2.15
2022-10-11T09:09:59.553Z,1.85
2022-10-11T09:12:33.486Z,1.77
2022-10-11T09:15:35.902Z,1.60
2022-10-11T09:18:39.417Z,2.20
2022-10-11T09:21:35.787Z,1.50
2022-10-11T09:24:10.137Z,1.60
2022-10-11T09:26:51.415Z,2.45
2022-10-11T09:29:46.942Z,1.77
2022-10-11T09:32:21.033Z,1.85
2022-10-11T09:35:09.243Z,1.75
2022-10-11T09:37:59.627Z,2.38
2022-10-11T09:41:09.259Z,1.98
2022-10-11T09:43:37.979Z,1.30
2022-10-11T09:46:18.843Z,2.10
2022-10-11T09:48:47.591Z,1.98
2022-10-11T09:51:21.267Z,2.30
2022-10-11T09:53:51.154Z,1.88
2022-10-11T09:58:49.669Z,2.10
2022-10-11T10:01:25.747Z,1.77
2022-10-11T10:04:17.311Z,2.28
2022-10-11T10:06:46.180Z,1.63
2022-10-11T10:09:25.376Z,2.20
2022-10-11T10:11:55.660Z,2.33
2022-10-11T10:14:30.640Z,2.00
2022-10-11T10:17:02.882Z,1.95
2022-10-11T10:19:55.429Z,2.08
2022-10-11T10:22:28.804Z,1.83
2022-10-11T10:24:59.038Z,2.00
2022-10-11T10:27:30.024Z,2.03
2022-10-11T10:30:10.811Z,2.95
2022-10-11T10:33:11.710Z,2.58
2022-10-11T10:35:48.971Z,3.22
2022-10-11T10:38:35.631Z,3.33
2022-10-11T10:41:06.823Z,2.50
2022-10-11T10:43:37.789Z,2.42
2022-10-11T10:46:09.346Z,2.90
2022-10-11T10:49:34.471Z,2.88
2022-10-11T10:52:06.038Z,3.13
2022-10-11T10:55:09.487Z,3.38
2022-10-11T10:58:04.077Z,4.32
2022-10-11T11:00:44.365Z,5.00
2022-10-11T11:03:47.967Z,3.17
2022-10-11T11:06:36.623Z,2.88
2022-10-11T11:09:46.461Z,2.45
2022-10-11T11:12:29.975Z,2.17
2022-10-11T11:15:32.647Z,3.17
2022-10-11T11:18:23.250Z,3.67
2022-10-11T11:21:04.270Z,3.30
2022-10-11T11:23:49.368Z,2.40
2022-10-11T11:26:44.218Z,2.80
2022-10-11T11:29:25.613Z,2.60
2022-10-11T11:31:59.943Z,2.33
2022-10-11T11:34:38.128Z,2.83
2022-10-11T11:37:37.747Z,2.58
2022-10-11T11:40:15.286Z,3.03
2022-10-11T11:42:55.784Z,3.75
2022-10-11T11:45:52.462Z,2.90
2022-10-11T11:48:27.348Z,2.78
2022-10-11T11:51:24.614Z,2.22
2022-10-11T11:54:10.288Z,2.13
2022-10-11T11:57:17.759Z,2.10
2022-10-11T12:00:04.578Z,2.42
2022-10-11T12:03:09.866Z,2.60
2022-10-11T12:05:38.095Z,2.33
2022-10-11T12:08:23.689Z,2.50
2022-10-11T12:10:51.598Z,2.08
2022-10-11T12:13:36.192Z,2.45
2022-10-11T12:16:13.107Z,2.10
2022-10-11T12:19:02.073Z,2.92
2022-10-11T12:21:43.685Z,2.83
2022-10-11T12:24:22.783Z,2.20
2022-10-11T12:27:19.906Z,3.25
2022-10-11T12:29:50.407Z,3.42
2022-10-11T12:32:28.506Z,3.25
2022-10-11T12:35:33.864Z,2.38
2022-10-11T12:38:31.039Z,3.35
2022-10-11T12:41:18.340Z,3.25
2022-10-11T12:43:49.387Z,2.45
2022-10-11T12:46:30.072Z,3.38
2022-10-11T12:49:01.456Z,3.17
2022-10-11T12:51:37.512Z,2.95
2022-10-11T12:54:33.326Z,9.98
2022-10-11T12:57:35.977Z,6.63
2022-10-11T13:00:29.886Z,2.58
2022-10-11T13:03:05.488Z,4.70
2022-10-11T13:05:45.485Z,4.30
2022-10-11T13:08:21.891Z,5.13
2022-10-11T13:10:50.423Z,3.78
2022-10-11T13:13:25.142Z,3.85
2022-10-11T13:16:01.889Z,2.30
2022-10-11T13:18:30.738Z,3.25
2022-10-11T13:20:58.858Z,2.75
2022-10-11T13:23:38.243Z,2.20
2022-10-11T13:26:06.737Z,2.55
2022-10-11T13:28:38.782Z,1.98
2022-10-11T13:31:08.050Z,2.10
2022-10-11T13:33:40.988Z,1.75
2022-10-11T13:36:17.861Z,2.53
2022-10-11T13:38:59.138Z,3.10
2022-10-11T13:41:30.164Z,2.80
2022-10-11T13:44:00.474Z,2.70
2022-10-11T13:46:30.875Z,2.50
2022-10-11T13:49:06.705Z,3.10
2022-10-11T13:51:37.986Z,2.40
2022-10-11T13:54:13.815Z,2.30
2022-10-11T13:56:51.498Z,3.30
2022-10-11T13:59:25.724Z,3.42
2022-10-11T14:02:01.456Z,2.63
2022-10-11T14:04:41.072Z,2.63
2022-10-11T14:07:27.710Z,2.72
2022-10-11T14:09:56.268Z,4.10
2022-10-11T14:12:27.519Z,9.30
2022-10-11T14:14:55.609Z,3.53
2022-10-11T14:17:39.090Z,5.18
2022-10-11T14:20:29.505Z,3.58
2022-10-11T14:23:00.892Z,6.75
2022-10-11T14:25:29.255Z,3.40
2022-10-11T14:27:58.721Z,3.33
2022-10-11T14:30:28.000Z,3.08
2022-10-11T14:32:59.761Z,4.22
2022-10-11T14:35:35.616Z,3.50
2022-10-11T14:38:03.818Z,2.95
2022-10-11T14:40:34.344Z,2.67
2022-10-11T14:43:02.761Z,5.60
2022-10-11T14:45:31.183Z,4.78
2022-10-11T14:47:59.741Z,4.07
2022-10-11T14:50:40.583Z,6.15
2022-10-11T14:53:11.122Z,3.72
2022-10-11T14:55:41.694Z,3.22
2022-10-11T14:58:11.932Z,2.95
2022-10-11T15:00:40.221Z,3.83
2022-10-11T15:03:08.528Z,4.45
2022-10-11T15:05:38.652Z,8.57
2022-10-11T15:10:39.232Z,6.00
2022-10-11T15:13:08.604Z,8.07
2022-10-11T15:15:41.048Z,15.75
2022-10-11T15:18:16.713Z,19.45
2022-10-11T15:20:47.180Z,20.00
2022-10-11T15:25:44.022Z,31.65
2022-10-11T15:28:28.920Z,18.58
2022-10-11T15:30:58.248Z,29.33
2022-10-11T15:33:27.718Z,17.55
2022-10-11T15:35:57.409Z,8.10
2022-10-11T15:38:26.706Z,5.65
2022-10-11T15:40:55.730Z,12.85
2022-10-11T15:43:25.115Z,11.43
2022-10-11T15:45:56.423Z,9.32
2022-10-11T15:50:55.615Z,6.40
2022-10-11T15:53:28.664Z,5.57
2022-10-11T15:56:01.281Z,5.13
2022-10-11T15:58:33.926Z,5.38
2022-10-11T16:01:07.780Z,8.02
2022-10-11T16:03:37.137Z,10.45
2022-10-11T16:06:06.812Z,10.10
2022-10-11T16:08:36.269Z,8.07
2022-10-11T16:11:07.237Z,12.63
2022-10-11T16:13:36.805Z,10.27
2022-10-11T16:21:10.646Z,17.85
2022-10-11T16:23:39.210Z,22.50
2022-10-11T16:26:12.426Z,23.15
2022-10-11T16:28:42.203Z,8.77
2022-10-11T16:31:18.161Z,7.50
2022-10-11T16:33:46.612Z,9.48
2022-10-11T16:36:32.140Z,5.20
2022-10-11T16:39:02.100Z,11.95
2022-10-11T16:41:30.477Z,10.30
2022-10-11T16:43:59.091Z,43.78
2022-10-11T16:46:27.650Z,63.42
2022-10-11T16:48:56.486Z,10.95
2022-10-11T16:51:25.439Z,18.20
2022-10-11T16:53:54.307Z,40.40
2022-10-11T16:56:25.090Z,20.27
2022-10-11T16:58:54.276Z,23.20
2022-10-11T17:01:22.818Z,28.73
2022-10-11T17:03:52.243Z,47.13
2022-10-11T17:06:20.740Z,22.30
2022-10-11T17:08:49.785Z,13.48
2022-10-11T17:11:19.399Z,26.13
2022-10-11T17:16:18.092Z,32.88
2022-10-11T17:18:47.129Z,29.83
2022-10-11T17:21:18.374Z,16.30
2022-10-11T17:23:48.617Z,11.18
2022-10-11T17:28:48.616Z,5.40
2022-10-11T17:31:18.108Z,5.07
2022-10-11T17:33:50.948Z,6.70
2022-10-11T17:38:54.655Z,6.40
2022-10-11T17:41:25.112Z,6.88
2022-10-11T17:44:00.185Z,6.63
2022-10-11T17:46:32.604Z,7.18
2022-10-11T17:49:05.028Z,6.97
2022-10-11T17:51:35.354Z,6.13
2022-10-11T17:54:06.364Z,8.38
2022-10-11T17:56:38.168Z,8.45
2022-10-11T17:59:17.167Z,7.97
2022-10-11T18:01:46.381Z,7.95
2022-10-11T18:04:17.000Z,8.05
2022-10-11T18:06:46.986Z,8.25
2022-10-11T18:09:18.710Z,8.07
2022-10-11T18:11:48.346Z,7.53
2022-10-11T18:14:18.583Z,6.35
2022-10-11T18:16:47.091Z,8.60
2022-10-11T18:19:16.225Z,6.50
2022-10-11T18:21:44.744Z,5.93
2022-10-11T18:24:15.452Z,7.88
2022-10-11T18:26:48.139Z,14.40
2022-10-11T18:29:16.814Z,9.57
2022-10-11T18:31:45.594Z,7.10
2022-10-11T18:34:14.932Z,6.38
2022-10-11T18:36:43.789Z,6.30
2022-10-11T18:39:14.768Z,6.82
2022-10-11T18:41:44.824Z,5.70
2022-10-11T18:44:15.405Z,6.20
2022-10-11T18:46:44.906Z,5.05
2022-10-11T18:49:15.056Z,6.43
2022-10-11T18:51:47.228Z,6.80
2022-10-11T18:54:21.332Z,6.93
2022-10-11T18:56:50.185Z,7.85
2022-10-11T18:59:20.440Z,11.98
2022-10-11T19:01:52.455Z,8.50
2022-10-11T19:04:23.753Z,5.65
2022-10-11T19:06:53.406Z,5.45
2022-10-11T19:09:26.313Z,6.53
2022-10-11T19:12:00.617Z,7.28
2022-10-11T19:14:30.754Z,6.35
2022-10-11T19:16:59.414Z,6.82
2022-10-11T19:19:30.789Z,6.97
2022-10-11T19:22:01.089Z,5.50
2022-10-11T19:24:31.735Z,8.70
2022-10-11T19:27:02.859Z,7.75
2022-10-11T19:29:32.629Z,8.10
2022-10-11T19:32:03.716Z,7.45
2022-10-11T19:34:32.938Z,6.75
2022-10-11T19:37:03.809Z,5.50
2022-10-11T19:39:32.843Z,5.65
2022-10-11T19:42:01.890Z,7.05
2022-10-11T19:44:35.671Z,6.28
2022-10-11T19:47:07.426Z,8.10
2022-10-11T19:49:36.571Z,7.32
2022-10-11T19:52:04.940Z,10.30
2022-10-11T19:54:33.366Z,11.90
2022-10-11T19:57:01.751Z,16.25
2022-10-11T19:59:30.264Z,14.35
2022-10-11T20:01:59.554Z,15.70
2022-10-11T20:07:18.611Z,6.82
2022-10-11T20:09:47.242Z,19.58
2022-10-11T20:12:15.699Z,16.88
2022-10-11T20:14:44.449Z,13.13
2022-10-11T20:17:12.687Z,11.38
2022-10-11T20:19:41.999Z,13.20
2022-10-11T20:22:11.046Z,16.48
2022-10-11T20:24:39.990Z,12.55
2022-10-11T20:27:08.740Z,16.38
2022-10-11T20:29:37.449Z,16.40
2022-10-11T20:32:06.048Z,20.23
2022-10-11T20:34:34.536Z,5.38
2022-10-11T20:37:02.942Z,6.10
2022-10-11T20:39:31.474Z,6.13
2022-10-11T20:41:59.915Z,5.30
2022-10-11T20:44:28.689Z,5.28
2022-10-11T20:47:00.367Z,5.20
2022-10-11T20:49:32.562Z,5.25
2022-10-11T20:52:01.137Z,8.07
2022-10-11T20:54:30.657Z,8.43
2022-10-11T20:56:59.478Z,5.78
2022-10-11T20:59:27.954Z,5.63
2022-10-11T21:01:56.188Z,5.35
2022-10-11T21:04:24.655Z,5.80
2022-10-11T21:06:52.819Z,4.28
2022-10-11T21:09:21.535Z,13.90
2022-10-11T21:11:50.330Z,4.80
2022-10-11T21:14:19.249Z,4.63
2022-10-11T21:16:47.870Z,4.32
2022-10-11T21:19:16.969Z,4.93
2022-10-11T21:21:53.290Z,4.07
2022-10-11T21:24:22.956Z,3.50
2022-10-11T21:26:51.750Z,4.63
2022-10-11T21:29:20.113Z,5.07
2022-10-11T21:31:48.734Z,4.60
2022-10-11T21:34:17.253Z,3.97
2022-10-11T21:36:45.601Z,3.83
2022-10-11T21:39:14.260Z,4.55
2022-10-11T21:41:42.449Z,4.72
2022-10-11T21:44:13.871Z,4.10
2022-10-11T21:47:06.025Z,3.97
2022-10-11T21:49:30.306Z,3.80
2022-10-11T21:51:58.669Z,3.63
2022-10-11T21:54:27.095Z,3.70
2022-10-11T21:56:55.449Z,4.18
2022-10-11T21:59:23.869Z,3.47
2022-10-11T22:01:53.725Z,3.65
2022-10-11T22:04:24.541Z,3.95
2022-10-11T22:06:53.318Z,3.88
2022-10-11T22:09:21.732Z,4.05
2022-10-11T22:11:50.053Z,3.60
2022-10-11T22:14:18.154Z,3.60
2022-10-11T22:16:46.518Z,4.13
2022-10-11T22:19:14.997Z,3.83
2022-10-11T22:21:45.172Z,3.20
2022-10-11T22:24:14.314Z,3.40
2022-10-11T22:26:42.909Z,3.63
2022-10-11T22:29:11.280Z,4.05
2022-10-11T22:31:39.966Z,3.30
2022-10-11T22:34:08.379Z,3.53
2022-10-11T22:36:36.505Z,3.88
2022-10-11T22:39:08.014Z,3.17
2022-10-11T22:41:37.364Z,3.85
2022-10-11T22:44:06.067Z,3.28
2022-10-11T22:46:34.153Z,3.38
2022-10-11T22:49:02.614Z,3.17
2022-10-11T22:51:30.553Z,2.72
2022-10-11T22:53:58.434Z,3.92
2022-10-11T22:56:26.878Z,5.93
2022-10-11T22:58:54.905Z,3.40
2022-10-11T23:01:22.937Z,3.40
2022-10-11T23:03:51.392Z,4.03
2022-10-11T23:06:19.719Z,4.40
2022-10-11T23:08:47.689Z,3.67
2022-10-11T23:11:16.676Z,3.15
2022-10-11T23:13:45.038Z,3.20
2022-10-11T23:16:13.689Z,2.65
2022-10-11T23:18:42.532Z,3.20
2022-10-11T23:21:10.584Z,3.00
2022-10-11T23:23:39.848Z,3.40
2022-10-11T23:26:12.219Z,3.00
2022-10-11T23:28:40.637Z,3.45
2022-10-11T23:31:11.740Z,3.00
2022-10-11T23:33:40.178Z,3.05
2022-10-11T23:36:18.497Z,3.13
2022-10-11T23:38:51.632Z,2.63
2022-10-11T23:41:21.148Z,3.38
2022-10-11T23:43:49.512Z,3.22
2022-10-11T23:46:17.687Z,3.08
2022-10-11T23:48:45.675Z,3.00
2022-10-11T23:51:13.886Z,2.88
2022-10-11T23:53:42.660Z,3.20
2022-10-11T23:56:11.967Z,2.90
2022-10-11T23:58:40.817Z,2.45
